createdAt,value
2022-12-15T00:00:16.367Z,12.67
2022-12-15T00:05:37.132Z,12.66
2022-12-15T00:10:58.217Z,12.68
2022-12-15T00:16:18.985Z,12.71
2022-12-15T00:21:40.063Z,12.81
2022-12-15T00:27:00.716Z,12.69
2022-12-15T00:32:21.584Z,12.74
2022-12-15T00:37:42.520Z,12.65
2022-12-15T00:42:44.766Z,12.61
2022-12-15T00:47:51.707Z,12.65
2022-12-15T00:53:12.496Z,12.69
2022-12-15T00:58:33.398Z,12.62
2022-12-15T01:03:54.033Z,12.78
2022-12-15T01:09:15.338Z,12.76
2022-12-15T01:14:36.274Z,12.58
2022-12-15T01:19:57.195Z,12.54
2022-12-15T01:24:59.398Z,12.47
2022-12-15T01:30:02.545Z,12.52
2022-12-15T01:35:06.470Z,12.50
2022-12-15T01:40:32.028Z,12.60
2022-12-15T01:45:49.198Z,12.61
2022-12-15T01:51:30.773Z,12.50
2022-12-15T01:56:38.130Z,12.50
2022-12-15T02:01:40.859Z,12.48
2022-12-15T02:06:43.634Z,12.58
2022-12-15T02:12:26.315Z,12.60
2022-12-15T02:17:53.472Z,12.61
2022-12-15T02:23:10.639Z,12.61
2022-12-15T02:28:46.494Z,12.56
2022-12-15T02:34:05.477Z,12.49
2022-12-15T02:39:07.719Z,12.53
2022-12-15T02:44:20.861Z,12.61
2022-12-15T02:50:04.808Z,12.46
2022-12-15T02:55:25.461Z,12.62
2022-12-15T03:00:29.021Z,12.43
2022-12-15T03:05:32.288Z,12.39
2022-12-15T03:10:34.867Z,12.50
2022-12-15T03:15:37.059Z,12.59
2022-12-15T03:20:39.350Z,12.47
2022-12-15T03:25:41.637Z,12.42
2022-12-15T03:30:44.097Z,12.54
2022-12-15T03:35:47.184Z,12.46
2022-12-15T03:40:49.472Z,12.47
2022-12-15T03:45:51.781Z,12.48
2022-12-15T03:50:54.481Z,12.32
2022-12-15T03:55:56.705Z,12.36
2022-12-15T04:00:59.126Z,12.40
2022-12-15T04:06:01.353Z,12.44
2022-12-15T04:11:03.809Z,12.47
2022-12-15T04:16:06.425Z,12.48
2022-12-15T04:21:08.673Z,12.58
2022-12-15T04:26:29.143Z,12.56
2022-12-15T04:31:51.545Z,12.52
2022-12-15T04:37:13.421Z,12.58
2022-12-15T04:42:35.345Z,12.52
2022-12-15T04:47:56.170Z,12.62
2022-12-15T04:53:27.045Z,12.61
2022-12-15T04:58:47.662Z,12.41
2022-12-15T05:04:08.541Z,12.49
2022-12-15T05:09:29.400Z,12.66
2022-12-15T05:14:50.227Z,12.48
2022-12-15T05:20:11.025Z,12.44
2022-12-15T05:25:31.834Z,12.48
2022-12-15T05:30:52.558Z,12.62
2022-12-15T05:35:59.272Z,12.66
2022-12-15T05:41:01.875Z,12.71
2022-12-15T05:46:05.521Z,12.70
2022-12-15T05:51:10.185Z,12.71
2022-12-15T05:56:14.734Z,12.79
2022-12-15T06:01:19.736Z,12.60
2022-12-15T06:06:22.130Z,12.75
2022-12-15T06:11:24.583Z,12.63
2022-12-15T06:16:31.027Z,12.68
2022-12-15T06:21:36.989Z,12.78
2022-12-15T06:26:40.622Z,12.74
2022-12-15T06:31:43.523Z,12.68
2022-12-15T06:36:46.142Z,12.70
2022-12-15T06:41:48.414Z,12.74
2022-12-15T06:46:50.854Z,12.58
2022-12-15T06:51:53.205Z,12.61
2022-12-15T06:56:55.447Z,12.73
2022-12-15T07:01:57.907Z,12.75
2022-12-15T07:07:00.382Z,12.86
2022-12-15T07:12:02.936Z,12.88
2022-12-15T07:17:06.399Z,12.97
2022-12-15T07:22:08.690Z,12.99
2022-12-15T07:27:11.089Z,12.97
2022-12-15T07:32:13.329Z,13.14
2022-12-15T07:37:16.667Z,13.15
2022-12-15T07:42:19.926Z,13.30
2022-12-15T07:47:22.275Z,13.33
2022-12-15T07:52:24.850Z,13.31
2022-12-15T07:57:27.061Z,13.34
2022-12-15T08:02:32.340Z,13.62
2022-12-15T08:07:34.781Z,13.69
2022-12-15T08:12:37.054Z,13.78
2022-12-15T08:17:39.426Z,13.87
2022-12-15T08:22:42.107Z,14.00
2022-12-15T08:27:44.358Z,14.22
2022-12-15T08:32:51.917Z,14.37
2022-12-15T08:37:54.574Z,14.40
2022-12-15T08:42:56.875Z,14.52
2022-12-15T08:48:00.113Z,14.57
2022-12-15T08:53:29.653Z,14.81
2022-12-15T08:58:24.848Z,14.87
2022-12-15T09:03:27.993Z,14.98
2022-12-15T09:08:31.425Z,15.18
2022-12-15T09:13:34.489Z,15.17
2022-12-15T09:18:37.320Z,15.42
2022-12-15T09:23:40.442Z,15.45
2022-12-15T09:28:50.220Z,15.43
2022-12-15T09:33:54.507Z,15.54
2022-12-15T09:38:57.097Z,15.58
2022-12-15T09:44:18.901Z,15.63
2022-12-15T09:49:41.190Z,15.75
2022-12-15T09:54:45.063Z,15.82
2022-12-15T10:00:08.036Z,15.90
2022-12-15T10:11:07.078Z,15.96
2022-12-15T10:16:28.280Z,16.01
2022-12-15T10:21:32.968Z,16.08
2022-12-15T10:26:36.002Z,16.18
2022-12-15T10:37:05.024Z,16.37
2022-12-15T10:48:05.306Z,16.42
2022-12-15T10:53:11.668Z,16.51
2022-12-15T10:58:22.410Z,16.65
2022-12-15T11:03:27.531Z,16.84
2022-12-15T11:14:16.312Z,16.95
2022-12-15T11:25:33.193Z,17.04
2022-12-15T12:10:13.989Z,17.78
2022-12-15T12:15:30.956Z,17.89
2022-12-15T12:20:56.532Z,17.85
2022-12-15T12:26:08.703Z,17.95
2022-12-15T12:31:23.379Z,18.08
2022-12-15T12:36:25.904Z,17.99
2022-12-15T12:41:36.811Z,18.21
2022-12-15T12:46:49.281Z,18.16
2022-12-15T12:51:55.552Z,18.37
2022-12-15T12:56:57.849Z,18.38
2022-12-15T13:02:17.194Z,18.72
2022-12-15T13:07:41.387Z,18.77
2022-12-15T13:12:59.776Z,18.67
2022-12-15T13:18:24.320Z,18.52
2022-12-15T13:23:26.589Z,18.78
2022-12-15T13:28:40.705Z,18.63
2022-12-15T13:33:51.357Z,18.40
2022-12-15T13:38:56.360Z,18.43
2022-12-15T13:44:00.912Z,18.41
2022-12-15T13:49:10.818Z,18.32
2022-12-15T13:54:25.449Z,18.05
2022-12-15T13:59:42.944Z,18.16
2022-12-15T14:04:45.280Z,18.11
2022-12-15T14:09:50.878Z,18.01
2022-12-15T14:14:53.208Z,17.80
2022-12-15T14:19:55.686Z,17.93
2022-12-15T14:25:13.952Z,17.83
2022-12-15T14:30:24.009Z,17.63
2022-12-15T14:35:55.767Z,17.58
2022-12-15T14:41:01.682Z,17.43
2022-12-15T14:46:19.889Z,17.44
2022-12-15T14:51:24.132Z,17.37
2022-12-15T14:56:33.497Z,17.26
2022-12-15T15:01:42.984Z,17.02
2022-12-15T15:03:12.649Z,17.72
2022-12-15T15:06:50.565Z,16.97
2022-12-15T15:12:18.537Z,16.94
2022-12-15T15:17:29.554Z,16.82
2022-12-15T15:22:42.861Z,16.71
2022-12-15T15:27:45.171Z,16.60
2022-12-15T15:32:52.446Z,16.65
2022-12-15T15:38:03.143Z,16.55
2022-12-15T15:43:12.421Z,16.34
2022-12-15T15:48:25.659Z,16.35
2022-12-15T15:53:32.384Z,16.25
2022-12-15T15:58:35.628Z,16.10
2022-12-15T16:03:38.648Z,16.07
2022-12-15T16:08:44.469Z,15.90
2022-12-15T16:13:46.781Z,15.88
2022-12-15T16:18:49.953Z,15.80
2022-12-15T16:23:53.438Z,15.89
2022-12-15T16:28:56.002Z,15.68
2022-12-15T16:33:58.367Z,15.62
2022-12-15T16:39:00.624Z,15.55
2022-12-15T16:44:02.873Z,15.58
2022-12-15T16:49:05.131Z,15.65
2022-12-15T16:54:08.153Z,15.50
2022-12-15T16:59:34.926Z,15.42
2022-12-15T17:04:37.735Z,15.25
2022-12-15T17:09:41.769Z,15.22
2022-12-15T17:14:45.435Z,15.22
2022-12-15T17:20:27.346Z,15.23
2022-12-15T17:26:00.847Z,15.11
2022-12-15T17:30:53.353Z,15.09
2022-12-15T17:36:05.226Z,14.92
2022-12-15T17:41:23.640Z,14.69
2022-12-15T17:46:34.996Z,14.59
2022-12-15T17:51:37.414Z,14.66
2022-12-15T17:56:39.889Z,14.66
2022-12-15T18:01:46.389Z,14.60
2022-12-15T18:06:49.324Z,14.51
2022-12-15T18:11:51.661Z,14.37
2022-12-15T18:16:53.922Z,14.41
2022-12-15T18:21:56.185Z,14.41
2022-12-15T18:26:59.030Z,14.36
2022-12-15T18:32:01.424Z,14.32
2022-12-15T18:37:14.235Z,14.35
2022-12-15T18:42:19.286Z,14.29
2022-12-15T18:47:23.820Z,14.36
2022-12-15T18:52:31.452Z,14.34
2022-12-15T18:57:39.850Z,14.30
2022-12-15T19:02:43.157Z,14.30
2022-12-15T19:07:45.590Z,14.23
2022-12-15T19:12:47.887Z,14.22
2022-12-15T19:18:08.673Z,14.11
2022-12-15T19:23:13.432Z,14.17
2022-12-15T19:28:22.357Z,14.16
2022-12-15T19:33:24.784Z,14.01
2022-12-15T19:38:30.696Z,13.80
2022-12-15T19:43:33.283Z,13.95
2022-12-15T19:48:35.650Z,13.93
2022-12-15T19:53:38.272Z,13.83
2022-12-15T19:58:40.568Z,13.86
2022-12-15T20:03:44.353Z,13.89
2022-12-15T20:08:48.862Z,13.87
2022-12-15T20:13:52.384Z,13.86
2022-12-15T20:18:56.458Z,13.66
2022-12-15T20:24:12.875Z,13.72
2022-12-15T20:29:30.453Z,13.60
2022-12-15T20:34:32.820Z,13.57
2022-12-15T20:39:35.118Z,13.37
2022-12-15T20:44:37.369Z,13.39
2022-12-15T20:49:39.737Z,13.26
2022-12-15T20:54:43.391Z,13.33
2022-12-15T20:59:46.426Z,13.29
2022-12-15T21:04:49.375Z,13.11
2022-12-15T21:09:52.101Z,13.05
2022-12-15T21:14:54.949Z,13.14
2022-12-15T21:19:57.133Z,12.97
2022-12-15T21:25:00.844Z,12.80
2022-12-15T21:30:07.174Z,12.92
2022-12-15T21:35:15.302Z,12.91
2022-12-15T21:40:22.383Z,12.82
2022-12-15T21:45:26.736Z,12.72
2022-12-15T21:50:29.319Z,12.69
2022-12-15T21:55:32.418Z,12.72
2022-12-15T22:00:34.751Z,12.62
2022-12-15T22:05:37.240Z,12.74
2022-12-15T22:10:39.921Z,12.46
2022-12-15T22:15:42.855Z,12.55
2022-12-15T22:20:46.149Z,12.56
2022-12-15T22:25:53.076Z,12.45
2022-12-15T22:30:57.429Z,12.46
2022-12-15T22:35:59.946Z,12.45
2022-12-15T22:41:02.567Z,12.50
2022-12-15T22:46:07.569Z,12.28
2022-12-15T22:51:14.847Z,12.38
2022-12-15T22:56:32.742Z,12.37
2022-12-15T23:01:35.756Z,12.33
2022-12-15T23:06:38.072Z,12.30
2022-12-15T23:11:41.840Z,12.23
2022-12-15T23:16:46.299Z,12.14
2022-12-15T23:21:48.595Z,12.08
2022-12-15T23:26:50.883Z,12.14
2022-12-15T23:31:54.056Z,12.01
2022-12-15T23:36:56.372Z,11.81
2022-12-15T23:41:58.653Z,11.98
2022-12-15T23:47:01.347Z,11.93
2022-12-15T23:52:03.653Z,11.80
2022-12-15T23:57:05.841Z,11.98
